sensor_id;sensor_type;location;lat;lon;timestamp;P1;durP1;ratioP1;P2;durP2;ratioP2
70414;SDS011;57837;52.064;113.478;2023-08-17T00:00:28;7.43;;;4.30;;
70414;SDS011;57837;52.064;113.478;2023-08-17T00:03:31;12.18;;;4.68;;
70414;SDS011;57837;52.064;113.478;2023-08-17T00:06:35;10.32;;;4.95;;
70414;SDS011;57837;52.064;113.478;2023-08-17T00:09:38;6.97;;;4.90;;
70414;SDS011;57837;52.064;113.478;2023-08-17T00:12:42;9.43;;;4.68;;
70414;SDS011;57837;52.064;113.478;2023-08-17T00:15:46;10.30;;;5.07;;
70414;SDS011;57837;52.064;113.478;2023-08-17T00:18:50;7.57;;;3.47;;
70414;SDS011;57837;52.064;113.478;2023-08-17T00:21:54;2.20;;;0.68;;
70414;SDS011;57837;52.064;113.478;2023-08-17T00:24:58;2.50;;;0.40;;
70414;SDS011;57837;52.064;113.478;2023-08-17T00:28:02;6.95;;;0.77;;
70414;SDS011;57837;52.064;113.478;2023-08-17T00:31:06;4.95;;;0.40;;
70414;SDS011;57837;52.064;113.478;2023-08-17T00:34:09;1.10;;;0.30;;
70414;SDS011;57837;52.064;113.478;2023-08-17T00:37:13;0.75;;;0.28;;
70414;SDS011;57837;52.064;113.478;2023-08-17T00:40:16;1.43;;;0.30;;
70414;SDS011;57837;52.064;113.478;2023-08-17T00:43:20;2.00;;;0.30;;
70414;SDS011;57837;52.064;113.478;2023-08-17T00:46:24;7.80;;;0.40;;
70414;SDS011;57837;52.064;113.478;2023-08-17T00:49:31;1.08;;;0.20;;
70414;SDS011;57837;52.064;113.478;2023-08-17T00:52:35;3.00;;;0.28;;
70414;SDS011;57837;52.064;113.478;2023-08-17T00:55:39;1.17;;;0.20;;
70414;SDS011;57837;52.064;113.478;2023-08-17T00:58:43;0.98;;;0.20;;
70414;SDS011;57837;52.064;113.478;2023-08-17T01:01:46;2.08;;;0.38;;
70414;SDS011;57837;52.064;113.478;2023-08-17T01:04:51;3.45;;;0.50;;
70414;SDS011;57837;52.064;113.478;2023-08-17T01:07:58;1.70;;;0.32;;
70414;SDS011;57837;52.064;113.478;2023-08-17T01:17:44;9.60;;;4.80;;
70414;SDS011;57837;52.064;113.478;2023-08-17T01:20:56;3.00;;;0.80;;
70414;SDS011;57837;52.064;113.478;2023-08-17T01:24:00;2.58;;;1.00;;
70414;SDS011;57837;52.064;113.478;2023-08-17T01:27:07;1.10;;;0.40;;
70414;SDS011;57837;52.064;113.478;2023-08-17T01:30:11;2.78;;;0.38;;
70414;SDS011;57837;52.064;113.478;2023-08-17T01:33:23;2.90;;;1.25;;
70414;SDS011;57837;52.064;113.478;2023-08-17T01:36:32;2.65;;;0.70;;
70414;SDS011;57837;52.064;113.478;2023-08-17T01:39:43;3.67;;;1.08;;
70414;SDS011;57837;52.064;113.478;2023-08-17T01:42:49;4.40;;;2.10;;
70414;SDS011;57837;52.064;113.478;2023-08-17T01:45:55;1.10;;;0.40;;
70414;SDS011;57837;52.064;113.478;2023-08-17T01:49:00;1.77;;;0.77;;
70414;SDS011;57837;52.064;113.478;2023-08-17T01:52:04;2.78;;;1.50;;
70414;SDS011;57837;52.064;113.478;2023-08-17T01:55:08;1.88;;;0.70;;
70414;SDS011;57837;52.064;113.478;2023-08-17T01:58:12;1.17;;;0.53;;
70414;SDS011;57837;52.064;113.478;2023-08-17T02:01:17;1.55;;;0.65;;
70414;SDS011;57837;52.064;113.478;2023-08-17T02:04:21;0.82;;;0.30;;
70414;SDS011;57837;52.064;113.478;2023-08-17T02:07:25;1.38;;;0.40;;
70414;SDS011;57837;52.064;113.478;2023-08-17T02:10:29;1.05;;;0.40;;
70414;SDS011;57837;52.064;113.478;2023-08-17T02:13:33;1.10;;;0.40;;
70414;SDS011;57837;52.064;113.478;2023-08-17T02:16:37;0.70;;;0.17;;
70414;SDS011;57837;52.064;113.478;2023-08-17T02:19:42;1.45;;;0.63;;
70414;SDS011;57837;52.064;113.478;2023-08-17T02:22:45;1.58;;;0.38;;
70414;SDS011;57837;52.064;113.478;2023-08-17T02:25:50;0.93;;;0.30;;
70414;SDS011;57837;52.064;113.478;2023-08-17T02:28:55;0.80;;;0.47;;
70414;SDS011;57837;52.064;113.478;2023-08-17T02:31:59;1.02;;;0.30;;
70414;SDS011;57837;52.064;113.478;2023-08-17T02:35:02;1.92;;;0.30;;
70414;SDS011;57837;52.064;113.478;2023-08-17T02:38:07;1.00;;;0.40;;
70414;SDS011;57837;52.064;113.478;2023-08-17T02:41:10;3.08;;;0.52;;
70414;SDS011;57837;52.064;113.478;2023-08-17T02:44:13;1.23;;;0.40;;
70414;SDS011;57837;52.064;113.478;2023-08-17T02:47:17;2.28;;;0.60;;
70414;SDS011;57837;52.064;113.478;2023-08-17T02:50:22;2.33;;;0.60;;
70414;SDS011;57837;52.064;113.478;2023-08-17T02:53:26;2.13;;;0.40;;
70414;SDS011;57837;52.064;113.478;2023-08-17T02:56:29;1.08;;;0.30;;
70414;SDS011;57837;52.064;113.478;2023-08-17T02:59:33;0.90;;;0.30;;
70414;SDS011;57837;52.064;113.478;2023-08-17T03:02:36;3.03;;;0.30;;
70414;SDS011;57837;52.064;113.478;2023-08-17T03:05:39;1.92;;;0.60;;
70414;SDS011;57837;52.064;113.478;2023-08-17T03:08:42;1.20;;;0.40;;
70414;SDS011;57837;52.064;113.478;2023-08-17T03:11:46;1.70;;;0.50;;
70414;SDS011;57837;52.064;113.478;2023-08-17T03:14:50;2.10;;;0.80;;
70414;SDS011;57837;52.064;113.478;2023-08-17T03:17:52;1.70;;;0.50;;
70414;SDS011;57837;52.064;113.478;2023-08-17T03:20:56;0.50;;;0.20;;
70414;SDS011;57837;52.064;113.478;2023-08-17T03:24:00;0.60;;;0.10;;
70414;SDS011;57837;52.064;113.478;2023-08-17T03:27:03;0.90;;;0.28;;
70414;SDS011;57837;52.064;113.478;2023-08-17T03:30:08;0.77;;;0.33;;
70414;SDS011;57837;52.064;113.478;2023-08-17T03:33:11;0.80;;;0.20;;
70414;SDS011;57837;52.064;113.478;2023-08-17T03:36:14;1.02;;;0.40;;
70414;SDS011;57837;52.064;113.478;2023-08-17T03:39:18;0.95;;;0.40;;
70414;SDS011;57837;52.064;113.478;2023-08-17T03:42:22;1.67;;;0.70;;
70414;SDS011;57837;52.064;113.478;2023-08-17T03:45:25;2.50;;;0.30;;
70414;SDS011;57837;52.064;113.478;2023-08-17T03:48:29;0.98;;;0.30;;
70414;SDS011;57837;52.064;113.478;2023-08-17T03:51:32;1.23;;;0.20;;
70414;SDS011;57837;52.064;113.478;2023-08-17T03:54:36;0.90;;;0.30;;
70414;SDS011;57837;52.064;113.478;2023-08-17T03:57:39;0.93;;;0.20;;
70414;SDS011;57837;52.064;113.478;2023-08-17T04:00:48;1.17;;;0.40;;
70414;SDS011;57837;52.064;113.478;2023-08-17T04:03:58;1.30;;;0.40;;
70414;SDS011;57837;52.064;113.478;2023-08-17T04:07:01;4.13;;;0.32;;
70414;SDS011;57837;52.064;113.478;2023-08-17T04:10:05;1.52;;;0.30;;
70414;SDS011;57837;52.064;113.478;2023-08-17T04:13:09;0.52;;;0.10;;
70414;SDS011;57837;52.064;113.478;2023-08-17T04:16:12;4.93;;;1.60;;
70414;SDS011;57837;52.064;113.478;2023-08-17T04:19:16;2.92;;;0.60;;
70414;SDS011;57837;52.064;113.478;2023-08-17T04:22:19;1.02;;;0.40;;
70414;SDS011;57837;52.064;113.478;2023-08-17T04:25:22;0.40;;;0.15;;
70414;SDS011;57837;52.064;113.478;2023-08-17T04:28:26;1.05;;;0.30;;
70414;SDS011;57837;52.064;113.478;2023-08-17T04:31:29;0.63;;;0.20;;
70414;SDS011;57837;52.064;113.478;2023-08-17T04:34:35;0.40;;;0.13;;
70414;SDS011;57837;52.064;113.478;2023-08-17T04:37:39;2.30;;;0.20;;
70414;SDS011;57837;52.064;113.478;2023-08-17T04:40:43;0.60;;;0.20;;
70414;SDS011;57837;52.064;113.478;2023-08-17T04:43:47;1.52;;;0.40;;
70414;SDS011;57837;52.064;113.478;2023-08-17T04:46:52;1.10;;;0.30;;
70414;SDS011;57837;52.064;113.478;2023-08-17T04:49:56;2.55;;;0.30;;
70414;SDS011;57837;52.064;113.478;2023-08-17T04:52:59;1.13;;;0.32;;
70414;SDS011;57837;52.064;113.478;2023-08-17T04:56:03;2.35;;;0.32;;
70414;SDS011;57837;52.064;113.478;2023-08-17T04:59:07;3.40;;;0.20;;
70414;SDS011;57837;52.064;113.478;2023-08-17T05:02:10;0.87;;;0.20;;
70414;SDS011;57837;52.064;113.478;2023-08-17T05:05:13;1.00;;;0.30;;
70414;SDS011;57837;52.064;113.478;2023-08-17T05:08:17;0.40;;;0.10;;
70414;SDS011;57837;52.064;113.478;2023-08-17T05:11:21;0.90;;;0.30;;
70414;SDS011;57837;52.064;113.478;2023-08-17T05:14:25;0.57;;;0.20;;
70414;SDS011;57837;52.064;113.478;2023-08-17T05:17:28;1.47;;;0.30;;
70414;SDS011;57837;52.064;113.478;2023-08-17T05:20:32;0.60;;;0.20;;
70414;SDS011;57837;52.064;113.478;2023-08-17T05:23:36;0.60;;;0.20;;
70414;SDS011;57837;52.064;113.478;2023-08-17T05:26:39;0.60;;;0.10;;
70414;SDS011;57837;52.064;113.478;2023-08-17T05:29:43;1.15;;;0.20;;
70414;SDS011;57837;52.064;113.478;2023-08-17T05:32:47;0.97;;;0.10;;
70414;SDS011;57837;52.064;113.478;2023-08-17T05:35:54;4.05;;;0.50;;
70414;SDS011;57837;52.064;113.478;2023-08-17T05:38:58;7.63;;;0.80;;
70414;SDS011;57837;52.064;113.478;2023-08-17T05:42:03;3.92;;;0.70;;
70414;SDS011;57837;52.064;113.478;2023-08-17T05:45:07;2.30;;;0.30;;
70414;SDS011;57837;52.064;113.478;2023-08-17T05:48:11;4.83;;;0.70;;
70414;SDS011;57837;52.064;113.478;2023-08-17T05:51:15;0.65;;;0.10;;
70414;SDS011;57837;52.064;113.478;2023-08-17T05:54:19;4.80;;;0.20;;
70414;SDS011;57837;52.064;113.478;2023-08-17T05:57:22;0.60;;;0.10;;
70414;SDS011;57837;52.064;113.478;2023-08-17T06:00:27;0.98;;;0.13;;
70414;SDS011;57837;52.064;113.478;2023-08-17T06:03:30;4.80;;;0.57;;
70414;SDS011;57837;52.064;113.478;2023-08-17T06:06:34;4.45;;;0.50;;
70414;SDS011;57837;52.064;113.478;2023-08-17T06:09:37;1.40;;;0.20;;
70414;SDS011;57837;52.064;113.478;2023-08-17T06:12:40;1.05;;;0.30;;
70414;SDS011;57837;52.064;113.478;2023-08-17T06:15:44;1.65;;;0.30;;
70414;SDS011;57837;52.064;113.478;2023-08-17T06:18:47;6.80;;;1.40;;
70414;SDS011;57837;52.064;113.478;2023-08-17T06:21:51;5.68;;;1.27;;
70414;SDS011;57837;52.064;113.478;2023-08-17T06:25:19;2.00;;;0.20;;
70414;SDS011;57837;52.064;113.478;2023-08-17T06:28:22;1.05;;;0.40;;
70414;SDS011;57837;52.064;113.478;2023-08-17T06:31:25;0.70;;;0.22;;
70414;SDS011;57837;52.064;113.478;2023-08-17T06:34:30;0.63;;;0.20;;
70414;SDS011;57837;52.064;113.478;2023-08-17T06:37:36;1.13;;;0.30;;
70414;SDS011;57837;52.064;113.478;2023-08-17T06:40:39;1.83;;;0.57;;
70414;SDS011;57837;52.064;113.478;2023-08-17T06:43:44;2.53;;;0.25;;
70414;SDS011;57837;52.064;113.478;2023-08-17T06:46:47;2.22;;;0.43;;
70414;SDS011;57837;52.064;113.478;2023-08-17T06:49:50;1.97;;;0.30;;
70414;SDS011;57837;52.064;113.478;2023-08-17T06:52:54;0.60;;;0.20;;
70414;SDS011;57837;52.064;113.478;2023-08-17T06:55:58;1.67;;;0.20;;
70414;SDS011;57837;52.064;113.478;2023-08-17T06:59:04;0.88;;;0.17;;
70414;SDS011;57837;52.064;113.478;2023-08-17T07:02:08;2.10;;;0.30;;
70414;SDS011;57837;52.064;113.478;2023-08-17T07:05:12;1.10;;;0.20;;
70414;SDS011;57837;52.064;113.478;2023-08-17T07:08:15;1.02;;;0.20;;
70414;SDS011;57837;52.064;113.478;2023-08-17T07:11:19;2.60;;;0.47;;
70414;SDS011;57837;52.064;113.478;2023-08-17T07:14:22;4.75;;;0.32;;
70414;SDS011;57837;52.064;113.478;2023-08-17T07:17:27;5.45;;;0.90;;
70414;SDS011;57837;52.064;113.478;2023-08-17T07:20:33;7.70;;;1.80;;
70414;SDS011;57837;52.064;113.478;2023-08-17T07:23:37;6.68;;;1.35;;
70414;SDS011;57837;52.064;113.478;2023-08-17T07:26:40;3.45;;;0.73;;
70414;SDS011;57837;52.064;113.478;2023-08-17T07:29:43;6.10;;;0.95;;
70414;SDS011;57837;52.064;113.478;2023-08-17T07:32:47;1.73;;;0.60;;
70414;SDS011;57837;52.064;113.478;2023-08-17T07:35:51;2.13;;;0.30;;
70414;SDS011;57837;52.064;113.478;2023-08-17T07:38:56;2.35;;;0.50;;
70414;SDS011;57837;52.064;113.478;2023-08-17T07:42:00;5.50;;;0.65;;
70414;SDS011;57837;52.064;113.478;2023-08-17T07:45:03;1.25;;;0.45;;
70414;SDS011;57837;52.064;113.478;2023-08-17T07:48:08;2.42;;;0.30;;
70414;SDS011;57837;52.064;113.478;2023-08-17T07:51:12;4.37;;;0.73;;
70414;SDS011;57837;52.064;113.478;2023-08-17T07:54:16;2.75;;;0.80;;
70414;SDS011;57837;52.064;113.478;2023-08-17T07:57:19;1.73;;;0.63;;
70414;SDS011;57837;52.064;113.478;2023-08-17T08:00:23;2.55;;;0.52;;
70414;SDS011;57837;52.064;113.478;2023-08-17T08:03:27;1.95;;;0.77;;
70414;SDS011;57837;52.064;113.478;2023-08-17T08:06:30;1.67;;;0.20;;
70414;SDS011;57837;52.064;113.478;2023-08-17T08:09:34;2.50;;;0.20;;
70414;SDS011;57837;52.064;113.478;2023-08-17T08:12:37;3.55;;;0.50;;
70414;SDS011;57837;52.064;113.478;2023-08-17T08:15:41;5.38;;;0.95;;
70414;SDS011;57837;52.064;113.478;2023-08-17T08:18:44;4.90;;;1.35;;
70414;SDS011;57837;52.064;113.478;2023-08-17T08:21:47;6.00;;;0.97;;
70414;SDS011;57837;52.064;113.478;2023-08-17T08:24:50;2.83;;;0.20;;
70414;SDS011;57837;52.064;113.478;2023-08-17T08:27:53;2.67;;;0.50;;
70414;SDS011;57837;52.064;113.478;2023-08-17T08:31:01;5.25;;;0.80;;
70414;SDS011;57837;52.064;113.478;2023-08-17T08:34:06;6.00;;;2.22;;
70414;SDS011;57837;52.064;113.478;2023-08-17T08:37:10;2.10;;;1.10;;
70414;SDS011;57837;52.064;113.478;2023-08-17T08:40:12;1.58;;;0.60;;
70414;SDS011;57837;52.064;113.478;2023-08-17T08:43:17;1.98;;;0.63;;
70414;SDS011;57837;52.064;113.478;2023-08-17T08:46:20;3.83;;;0.60;;
70414;SDS011;57837;52.064;113.478;2023-08-17T08:49:29;0.75;;;0.20;;
70414;SDS011;57837;52.064;113.478;2023-08-17T08:52:41;3.00;;;0.20;;
70414;SDS011;57837;52.064;113.478;2023-08-17T08:55:49;3.17;;;0.70;;
70414;SDS011;57837;52.064;113.478;2023-08-17T08:59:04;2.88;;;0.50;;
70414;SDS011;57837;52.064;113.478;2023-08-17T09:02:08;3.72;;;0.50;;
70414;SDS011;57837;52.064;113.478;2023-08-17T09:05:14;1.13;;;0.45;;
70414;SDS011;57837;52.064;113.478;2023-08-17T09:08:36;1.63;;;0.30;;
70414;SDS011;57837;52.064;113.478;2023-08-17T09:11:39;1.05;;;0.43;;
70414;SDS011;57837;52.064;113.478;2023-08-17T09:14:45;2.28;;;0.90;;
70414;SDS011;57837;52.064;113.478;2023-08-17T09:17:49;3.33;;;1.00;;
70414;SDS011;57837;52.064;113.478;2023-08-17T09:20:54;1.48;;;0.45;;
70414;SDS011;57837;52.064;113.478;2023-08-17T09:23:57;3.97;;;1.17;;
70414;SDS011;57837;52.064;113.478;2023-08-17T09:27:02;1.90;;;0.63;;
70414;SDS011;57837;52.064;113.478;2023-08-17T09:30:12;1.73;;;0.63;;
70414;SDS011;57837;52.064;113.478;2023-08-17T09:33:24;1.13;;;0.22;;
70414;SDS011;57837;52.064;113.478;2023-08-17T09:36:28;0.70;;;0.30;;
70414;SDS011;57837;52.064;113.478;2023-08-17T09:39:31;3.87;;;0.30;;
70414;SDS011;57837;52.064;113.478;2023-08-17T09:42:36;2.83;;;0.80;;
70414;SDS011;57837;52.064;113.478;2023-08-17T09:45:40;3.65;;;1.52;;
70414;SDS011;57837;52.064;113.478;2023-08-17T09:48:47;1.50;;;0.68;;
70414;SDS011;57837;52.064;113.478;2023-08-17T09:51:51;1.95;;;0.32;;
70414;SDS011;57837;52.064;113.478;2023-08-17T09:54:57;1.00;;;0.30;;
70414;SDS011;57837;52.064;113.478;2023-08-17T09:58:10;1.45;;;0.30;;
70414;SDS011;57837;52.064;113.478;2023-08-17T10:01:18;0.50;;;0.20;;
70414;SDS011;57837;52.064;113.478;2023-08-17T10:04:22;1.30;;;0.30;;
70414;SDS011;57837;52.064;113.478;2023-08-17T10:07:29;0.80;;;0.30;;
70414;SDS011;57837;52.064;113.478;2023-08-17T10:10:35;5.63;;;0.60;;
70414;SDS011;57837;52.064;113.478;2023-08-17T10:13:48;2.00;;;0.30;;
70414;SDS011;57837;52.064;113.478;2023-08-17T10:16:57;2.10;;;0.60;;
70414;SDS011;57837;52.064;113.478;2023-08-17T10:20:13;3.85;;;0.60;;
70414;SDS011;57837;52.064;113.478;2023-08-17T10:23:18;2.58;;;0.90;;
70414;SDS011;57837;52.064;113.478;2023-08-17T10:26:25;4.67;;;1.20;;
70414;SDS011;57837;52.064;113.478;2023-08-17T10:29:28;2.75;;;1.10;;
70414;SDS011;57837;52.064;113.478;2023-08-17T10:32:34;1.85;;;0.90;;
70414;SDS011;57837;52.064;113.478;2023-08-17T10:35:39;0.95;;;0.40;;
70414;SDS011;57837;52.064;113.478;2023-08-17T10:38:43;1.45;;;0.73;;
70414;SDS011;57837;52.064;113.478;2023-08-17T10:41:47;4.83;;;0.50;;
70414;SDS011;57837;52.064;113.478;2023-08-17T10:44:53;3.22;;;0.50;;
70414;SDS011;57837;52.064;113.478;2023-08-17T10:48:24;3.20;;;0.90;;
70414;SDS011;57837;52.064;113.478;2023-08-17T10:51:32;2.25;;;0.95;;
70414;SDS011;57837;52.064;113.478;2023-08-17T10:54:41;4.80;;;0.70;;
70414;SDS011;57837;52.064;113.478;2023-08-17T10:57:46;2.13;;;0.60;;
70414;SDS011;57837;52.064;113.478;2023-08-17T11:00:54;3.35;;;1.10;;
70414;SDS011;57837;52.064;113.478;2023-08-17T11:04:10;3.17;;;1.05;;
70414;SDS011;57837;52.064;113.478;2023-08-17T11:07:19;10.98;;;1.52;;
70414;SDS011;57837;52.064;113.478;2023-08-17T11:13:30;4.90;;;1.20;;
70414;SDS011;57837;52.064;113.478;2023-08-17T11:16:36;6.13;;;1.50;;
70414;SDS011;57837;52.064;113.478;2023-08-17T11:19:41;8.60;;;2.03;;
70414;SDS011;57837;52.064;113.478;2023-08-17T11:22:46;6.15;;;1.67;;
70414;SDS011;57837;52.064;113.478;2023-08-17T11:25:53;4.82;;;1.33;;
70414;SDS011;57837;52.064;113.478;2023-08-17T11:28:58;2.73;;;1.30;;
70414;SDS011;57837;52.064;113.478;2023-08-17T11:32:04;2.55;;;1.17;;
70414;SDS011;57837;52.064;113.478;2023-08-17T11:35:09;3.55;;;1.50;;
70414;SDS011;57837;52.064;113.478;2023-08-17T11:38:14;3.90;;;1.50;;
70414;SDS011;57837;52.064;113.478;2023-08-17T11:41:18;2.95;;;0.90;;
70414;SDS011;57837;52.064;113.478;2023-08-17T11:44:24;3.10;;;1.10;;
70414;SDS011;57837;52.064;113.478;2023-08-17T11:47:28;3.70;;;1.15;;
70414;SDS011;57837;52.064;113.478;2023-08-17T11:50:35;5.57;;;1.52;;
70414;SDS011;57837;52.064;113.478;2023-08-17T11:53:41;4.03;;;0.90;;
70414;SDS011;57837;52.064;113.478;2023-08-17T11:56:51;7.00;;;1.20;;
70414;SDS011;57837;52.064;113.478;2023-08-17T11:59:56;5.03;;;1.20;;
70414;SDS011;57837;52.064;113.478;2023-08-17T12:03:02;3.03;;;1.00;;
70414;SDS011;57837;52.064;113.478;2023-08-17T12:06:08;3.50;;;1.40;;
70414;SDS011;57837;52.064;113.478;2023-08-17T12:09:13;1.67;;;0.70;;
70414;SDS011;57837;52.064;113.478;2023-08-17T12:12:18;3.30;;;1.70;;
70414;SDS011;57837;52.064;113.478;2023-08-17T12:15:30;2.53;;;1.30;;
70414;SDS011;57837;52.064;113.478;2023-08-17T12:18:38;1.65;;;0.82;;
70414;SDS011;57837;52.064;113.478;2023-08-17T12:21:45;1.85;;;0.98;;
70414;SDS011;57837;52.064;113.478;2023-08-17T12:24:51;1.88;;;0.90;;
70414;SDS011;57837;52.064;113.478;2023-08-17T12:28:00;3.00;;;0.93;;
70414;SDS011;57837;52.064;113.478;2023-08-17T12:31:05;2.77;;;1.23;;
70414;SDS011;57837;52.064;113.478;2023-08-17T12:34:10;1.70;;;0.90;;
70414;SDS011;57837;52.064;113.478;2023-08-17T12:37:18;2.42;;;0.98;;
70414;SDS011;57837;52.064;113.478;2023-08-17T12:40:24;2.78;;;1.20;;
70414;SDS011;57837;52.064;113.478;2023-08-17T12:43:29;6.63;;;2.20;;
70414;SDS011;57837;52.064;113.478;2023-08-17T12:46:34;2.33;;;0.90;;
70414;SDS011;57837;52.064;113.478;2023-08-17T12:49:38;1.88;;;1.20;;
70414;SDS011;57837;52.064;113.478;2023-08-17T12:52:43;1.85;;;1.02;;
70414;SDS011;57837;52.064;113.478;2023-08-17T12:55:48;3.45;;;1.65;;
70414;SDS011;57837;52.064;113.478;2023-08-17T12:58:57;2.35;;;1.30;;
70414;SDS011;57837;52.064;113.478;2023-08-17T13:02:04;4.60;;;1.70;;
70414;SDS011;57837;52.064;113.478;2023-08-17T13:05:08;2.40;;;1.20;;
70414;SDS011;57837;52.064;113.478;2023-08-17T13:08:13;3.10;;;1.30;;
70414;SDS011;57837;52.064;113.478;2023-08-17T13:11:18;2.05;;;1.10;;
70414;SDS011;57837;52.064;113.478;2023-08-17T13:14:22;5.32;;;1.30;;
70414;SDS011;57837;52.064;113.478;2023-08-17T13:17:27;2.97;;;1.20;;
70414;SDS011;57837;52.064;113.478;2023-08-17T13:20:32;2.60;;;1.48;;
70414;SDS011;57837;52.064;113.478;2023-08-17T13:23:36;3.03;;;1.67;;
70414;SDS011;57837;52.064;113.478;2023-08-17T13:26:40;3.95;;;1.40;;
70414;SDS011;57837;52.064;113.478;2023-08-17T13:29:47;2.38;;;1.35;;
70414;SDS011;57837;52.064;113.478;2023-08-17T13:32:51;1.93;;;1.20;;
70414;SDS011;57837;52.064;113.478;2023-08-17T13:35:55;3.40;;;1.60;;
70414;SDS011;57837;52.064;113.478;2023-08-17T13:39:02;2.35;;;1.27;;
70414;SDS011;57837;52.064;113.478;2023-08-17T13:42:30;2.53;;;1.20;;
70414;SDS011;57837;52.064;113.478;2023-08-17T13:45:34;2.60;;;1.40;;
70414;SDS011;57837;52.064;113.478;2023-08-17T13:48:39;3.63;;;1.53;;
70414;SDS011;57837;52.064;113.478;2023-08-17T13:51:43;2.38;;;1.20;;
70414;SDS011;57837;52.064;113.478;2023-08-17T13:54:48;2.17;;;1.40;;
70414;SDS011;57837;52.064;113.478;2023-08-17T13:57:53;4.85;;;1.65;;
70414;SDS011;57837;52.064;113.478;2023-08-17T14:00:59;2.63;;;1.50;;
70414;SDS011;57837;52.064;113.478;2023-08-17T14:04:04;2.67;;;1.40;;
70414;SDS011;57837;52.064;113.478;2023-08-17T14:07:16;6.88;;;1.70;;
70414;SDS011;57837;52.064;113.478;2023-08-17T14:10:20;5.32;;;1.63;;
70414;SDS011;57837;52.064;113.478;2023-08-17T14:13:39;2.85;;;1.63;;
70414;SDS011;57837;52.064;113.478;2023-08-17T14:16:44;2.90;;;1.58;;
70414;SDS011;57837;52.064;113.478;2023-08-17T14:19:49;2.77;;;1.40;;
70414;SDS011;57837;52.064;113.478;2023-08-17T14:22:53;1.70;;;1.10;;
70414;SDS011;57837;52.064;113.478;2023-08-17T14:25:57;3.08;;;1.50;;
70414;SDS011;57837;52.064;113.478;2023-08-17T14:29:00;2.70;;;1.50;;
70414;SDS011;57837;52.064;113.478;2023-08-17T14:32:04;2.33;;;1.50;;
70414;SDS011;57837;52.064;113.478;2023-08-17T14:35:08;3.70;;;1.60;;
70414;SDS011;57837;52.064;113.478;2023-08-17T14:38:14;2.58;;;1.73;;
70414;SDS011;57837;52.064;113.478;2023-08-17T14:41:18;4.72;;;1.80;;
70414;SDS011;57837;52.064;113.478;2023-08-17T14:44:22;3.28;;;1.50;;
70414;SDS011;57837;52.064;113.478;2023-08-17T14:47:25;3.05;;;1.63;;
70414;SDS011;57837;52.064;113.478;2023-08-17T14:50:30;4.60;;;1.50;;
70414;SDS011;57837;52.064;113.478;2023-08-17T14:53:33;2.90;;;1.50;;
70414;SDS011;57837;52.064;113.478;2023-08-17T14:56:40;3.40;;;1.48;;
70414;SDS011;57837;52.064;113.478;2023-08-17T14:59:44;3.22;;;1.65;;
70414;SDS011;57837;52.064;113.478;2023-08-17T15:02:47;3.25;;;1.90;;
70414;SDS011;57837;52.064;113.478;2023-08-17T15:05:52;3.10;;;1.33;;
70414;SDS011;57837;52.064;113.478;2023-08-17T15:08:55;2.70;;;1.52;;
70414;SDS011;57837;52.064;113.478;2023-08-17T15:11:58;9.90;;;1.75;;
70414;SDS011;57837;52.064;113.478;2023-08-17T15:15:01;3.67;;;1.65;;
70414;SDS011;57837;52.064;113.478;2023-08-17T15:18:05;2.70;;;1.77;;
70414;SDS011;57837;52.064;113.478;2023-08-17T15:21:09;4.87;;;2.00;;
70414;SDS011;57837;52.064;113.478;2023-08-17T15:24:12;2.78;;;1.60;;
70414;SDS011;57837;52.064;113.478;2023-08-17T15:27:16;2.85;;;1.85;;
70414;SDS011;57837;52.064;113.478;2023-08-17T15:30:19;3.47;;;2.10;;
70414;SDS011;57837;52.064;113.478;2023-08-17T15:33:22;3.63;;;1.77;;
70414;SDS011;57837;52.064;113.478;2023-08-17T15:36:24;2.50;;;1.70;;
70414;SDS011;57837;52.064;113.478;2023-08-17T15:39:29;2.42;;;1.98;;
70414;SDS011;57837;52.064;113.478;2023-08-17T15:42:32;3.15;;;1.80;;
70414;SDS011;57837;52.064;113.478;2023-08-17T15:45:36;4.07;;;1.67;;
70414;SDS011;57837;52.064;113.478;2023-08-17T15:48:39;3.20;;;1.90;;
70414;SDS011;57837;52.064;113.478;2023-08-17T15:51:43;3.33;;;1.90;;
70414;SDS011;57837;52.064;113.478;2023-08-17T15:54:47;3.03;;;1.83;;
70414;SDS011;57837;52.064;113.478;2023-08-17T15:57:50;3.08;;;1.85;;
70414;SDS011;57837;52.064;113.478;2023-08-17T16:00:54;13.30;;;3.75;;
70414;SDS011;57837;52.064;113.478;2023-08-17T16:03:58;4.00;;;2.00;;
70414;SDS011;57837;52.064;113.478;2023-08-17T16:07:01;2.63;;;1.60;;
70414;SDS011;57837;52.064;113.478;2023-08-17T16:10:04;4.05;;;2.45;;
70414;SDS011;57837;52.064;113.478;2023-08-17T16:13:08;3.90;;;2.15;;
70414;SDS011;57837;52.064;113.478;2023-08-17T16:16:12;2.90;;;1.88;;
70414;SDS011;57837;52.064;113.478;2023-08-17T16:19:15;3.20;;;1.92;;
70414;SDS011;57837;52.064;113.478;2023-08-17T16:22:18;2.20;;;1.53;;
70414;SDS011;57837;52.064;113.478;2023-08-17T16:25:22;4.18;;;2.10;;
70414;SDS011;57837;52.064;113.478;2023-08-17T16:28:31;2.85;;;1.80;;
70414;SDS011;57837;52.064;113.478;2023-08-17T16:31:35;3.92;;;1.70;;
70414;SDS011;57837;52.064;113.478;2023-08-17T16:34:38;3.30;;;2.35;;
70414;SDS011;57837;52.064;113.478;2023-08-17T16:37:41;2.70;;;1.50;;
70414;SDS011;57837;52.064;113.478;2023-08-17T16:40:44;4.38;;;1.60;;
70414;SDS011;57837;52.064;113.478;2023-08-17T16:43:48;3.72;;;1.55;;
70414;SDS011;57837;52.064;113.478;2023-08-17T16:46:51;3.45;;;1.45;;
70414;SDS011;57837;52.064;113.478;2023-08-17T16:49:55;2.13;;;1.45;;
70414;SDS011;57837;52.064;113.478;2023-08-17T16:53:00;2.53;;;1.43;;
70414;SDS011;57837;52.064;113.478;2023-08-17T16:56:02;3.22;;;1.38;;
70414;SDS011;57837;52.064;113.478;2023-08-17T16:59:05;2.35;;;1.60;;
70414;SDS011;57837;52.064;113.478;2023-08-17T17:02:09;2.25;;;1.35;;
70414;SDS011;57837;52.064;113.478;2023-08-17T17:05:16;3.63;;;1.58;;
70414;SDS011;57837;52.064;113.478;2023-08-17T17:08:18;2.47;;;1.40;;
70414;SDS011;57837;52.064;113.478;2023-08-17T17:11:22;3.08;;;1.33;;
70414;SDS011;57837;52.064;113.478;2023-08-17T17:14:25;2.38;;;1.42;;
70414;SDS011;57837;52.064;113.478;2023-08-17T17:17:28;2.53;;;1.60;;
70414;SDS011;57837;52.064;113.478;2023-08-17T17:20:31;2.40;;;1.35;;
70414;SDS011;57837;52.064;113.478;2023-08-17T17:23:35;3.40;;;1.50;;
70414;SDS011;57837;52.064;113.478;2023-08-17T17:26:38;4.88;;;1.45;;
70414;SDS011;57837;52.064;113.478;2023-08-17T17:29:41;1.90;;;1.27;;
70414;SDS011;57837;52.064;113.478;2023-08-17T17:32:45;2.08;;;1.40;;
70414;SDS011;57837;52.064;113.478;2023-08-17T17:35:48;2.03;;;1.20;;
70414;SDS011;57837;52.064;113.478;2023-08-17T17:38:51;3.07;;;1.50;;
70414;SDS011;57837;52.064;113.478;2023-08-17T17:41:55;3.53;;;1.40;;
70414;SDS011;57837;52.064;113.478;2023-08-17T17:44:59;2.67;;;1.63;;
70414;SDS011;57837;52.064;113.478;2023-08-17T17:48:04;2.10;;;1.33;;
70414;SDS011;57837;52.064;113.478;2023-08-17T17:51:07;4.72;;;1.58;;
70414;SDS011;57837;52.064;113.478;2023-08-17T17:54:10;4.40;;;1.47;;
70414;SDS011;57837;52.064;113.478;2023-08-17T17:57:13;2.78;;;1.30;;
70414;SDS011;57837;52.064;113.478;2023-08-17T18:00:17;2.15;;;1.40;;
70414;SDS011;57837;52.064;113.478;2023-08-17T18:03:21;1.75;;;1.10;;
70414;SDS011;57837;52.064;113.478;2023-08-17T18:06:25;2.80;;;1.27;;
70414;SDS011;57837;52.064;113.478;2023-08-17T18:09:28;2.87;;;1.33;;